sensor_id;sensor_type;location;lat;lon;timestamp;temperature;humidity
9389;DHT22;4734;52.778;6.798;2022-09-01T00:01:18;17.10;68.70
9389;DHT22;4734;52.778;6.798;2022-09-01T00:04:05;17.10;68.80
9389;DHT22;4734;52.778;6.798;2022-09-01T00:06:53;17.00;68.70
9389;DHT22;4734;52.778;6.798;2022-09-01T00:09:40;17.00;68.60
9389;DHT22;4734;52.778;6.798;2022-09-01T00:12:27;17.00;68.70
9389;DHT22;4734;52.778;6.798;2022-09-01T00:15:13;16.90;68.80
9389;DHT22;4734;52.778;6.798;2022-09-01T00:17:58;17.00;68.70
9389;DHT22;4734;52.778;6.798;2022-09-01T00:20:44;16.90;68.70
9389;DHT22;4734;52.778;6.798;2022-09-01T00:23:30;16.80;68.70
9389;DHT22;4734;52.778;6.798;2022-09-01T00:26:17;16.80;68.80
9389;DHT22;4734;52.778;6.798;2022-09-01T00:29:04;16.80;68.90
9389;DHT22;4734;52.778;6.798;2022-09-01T00:31:50;16.80;68.70
9389;DHT22;4734;52.778;6.798;2022-09-01T00:34:35;16.80;68.70
9389;DHT22;4734;52.778;6.798;2022-09-01T00:37:21;16.70;68.50
9389;DHT22;4734;52.778;6.798;2022-09-01T00:40:08;16.70;68.60
9389;DHT22;4734;52.778;6.798;2022-09-01T00:42:56;16.60;68.50
9389;DHT22;4734;52.778;6.798;2022-09-01T00:45:41;16.60;68.50
9389;DHT22;4734;52.778;6.798;2022-09-01T00:48:27;16.60;68.70
9389;DHT22;4734;52.778;6.798;2022-09-01T00:51:14;16.50;68.60
9389;DHT22;4734;52.778;6.798;2022-09-01T00:54:01;16.50;68.70
9389;DHT22;4734;52.778;6.798;2022-09-01T00:56:47;16.40;68.80
9389;DHT22;4734;52.778;6.798;2022-09-01T00:59:36;16.40;68.70
9389;DHT22;4734;52.778;6.798;2022-09-01T01:02:23;16.40;68.80
9389;DHT22;4734;52.778;6.798;2022-09-01T01:05:09;16.40;68.60
9389;DHT22;4734;52.778;6.798;2022-09-01T01:07:55;16.40;68.50
9389;DHT22;4734;52.778;6.798;2022-09-01T01:10:41;16.40;68.70
9389;DHT22;4734;52.778;6.798;2022-09-01T01:13:27;16.30;68.70
9389;DHT22;4734;52.778;6.798;2022-09-01T01:16:22;16.20;68.50
9389;DHT22;4734;52.778;6.798;2022-09-01T01:19:09;16.20;68.90
9389;DHT22;4734;52.778;6.798;2022-09-01T01:22:23;16.20;68.60
9389;DHT22;4734;52.778;6.798;2022-09-01T01:25:35;16.10;68.60
9389;DHT22;4734;52.778;6.798;2022-09-01T01:28:24;16.10;68.70
9389;DHT22;4734;52.778;6.798;2022-09-01T01:31:14;16.00;68.50
9389;DHT22;4734;52.778;6.798;2022-09-01T01:34:01;16.00;68.50
9389;DHT22;4734;52.778;6.798;2022-09-01T01:36:50;16.00;68.70
9389;DHT22;4734;52.778;6.798;2022-09-01T01:39:36;15.90;68.70
9389;DHT22;4734;52.778;6.798;2022-09-01T01:42:25;15.90;68.80
9389;DHT22;4734;52.778;6.798;2022-09-01T01:45:12;15.80;68.70
9389;DHT22;4734;52.778;6.798;2022-09-01T01:48:00;15.80;68.60
9389;DHT22;4734;52.778;6.798;2022-09-01T01:50:52;15.80;68.50
9389;DHT22;4734;52.778;6.798;2022-09-01T01:53:39;15.80;68.70
9389;DHT22;4734;52.778;6.798;2022-09-01T01:56:25;15.70;68.60
9389;DHT22;4734;52.778;6.798;2022-09-01T01:59:12;15.80;68.80
9389;DHT22;4734;52.778;6.798;2022-09-01T02:01:59;15.80;68.60
9389;DHT22;4734;52.778;6.798;2022-09-01T02:04:53;15.70;68.60
9389;DHT22;4734;52.778;6.798;2022-09-01T02:07:39;15.60;68.60
9389;DHT22;4734;52.778;6.798;2022-09-01T02:10:28;15.60;68.70
9389;DHT22;4734;52.778;6.798;2022-09-01T02:13:17;15.50;68.70
9389;DHT22;4734;52.778;6.798;2022-09-01T02:16:07;15.50;68.70
9389;DHT22;4734;52.778;6.798;2022-09-01T02:18:55;15.50;68.70
9389;DHT22;4734;52.778;6.798;2022-09-01T02:21:41;15.50;68.70
9389;DHT22;4734;52.778;6.798;2022-09-01T02:24:27;15.40;68.60
9389;DHT22;4734;52.778;6.798;2022-09-01T02:27:15;15.40;68.60
9389;DHT22;4734;52.778;6.798;2022-09-01T02:30:09;15.40;68.50
9389;DHT22;4734;52.778;6.798;2022-09-01T02:32:57;15.40;68.50
9389;DHT22;4734;52.778;6.798;2022-09-01T02:35:43;15.40;68.60
9389;DHT22;4734;52.778;6.798;2022-09-01T02:38:29;15.40;68.40
9389;DHT22;4734;52.778;6.798;2022-09-01T02:41:17;15.30;68.40
9389;DHT22;4734;52.778;6.798;2022-09-01T02:44:07;15.30;68.50
9389;DHT22;4734;52.778;6.798;2022-09-01T02:46:54;15.30;68.40
9389;DHT22;4734;52.778;6.798;2022-09-01T02:49:41;15.30;68.30
9389;DHT22;4734;52.778;6.798;2022-09-01T02:52:28;15.20;68.40
9389;DHT22;4734;52.778;6.798;2022-09-01T02:55:20;15.20;68.40
9389;DHT22;4734;52.778;6.798;2022-09-01T02:58:07;15.20;68.40
9389;DHT22;4734;52.778;6.798;2022-09-01T03:00:59;15.20;68.30
9389;DHT22;4734;52.778;6.798;2022-09-01T03:03:45;15.20;68.40
9389;DHT22;4734;52.778;6.798;2022-09-01T03:06:32;15.20;68.40
9389;DHT22;4734;52.778;6.798;2022-09-01T03:09:20;15.20;68.30
9389;DHT22;4734;52.778;6.798;2022-09-01T03:12:06;15.10;68.30
9389;DHT22;4734;52.778;6.798;2022-09-01T03:14:51;15.10;68.30
9389;DHT22;4734;52.778;6.798;2022-09-01T03:17:37;15.10;68.40
9389;DHT22;4734;52.778;6.798;2022-09-01T03:20:23;15.10;68.30
9389;DHT22;4734;52.778;6.798;2022-09-01T03:23:12;15.10;68.30
9389;DHT22;4734;52.778;6.798;2022-09-01T03:25:59;15.10;68.20
9389;DHT22;4734;52.778;6.798;2022-09-01T03:28:46;15.00;68.20
9389;DHT22;4734;52.778;6.798;2022-09-01T03:31:32;15.00;68.20
9389;DHT22;4734;52.778;6.798;2022-09-01T03:34:17;15.00;68.20
9389;DHT22;4734;52.778;6.798;2022-09-01T03:37:06;15.00;68.20
9389;DHT22;4734;52.778;6.798;2022-09-01T03:39:54;15.00;68.10
9389;DHT22;4734;52.778;6.798;2022-09-01T03:42:42;15.00;68.20
9389;DHT22;4734;52.778;6.798;2022-09-01T03:45:28;14.90;68.20
9389;DHT22;4734;52.778;6.798;2022-09-01T03:48:13;15.00;68.10
9389;DHT22;4734;52.778;6.798;2022-09-01T03:50:59;14.90;68.10
9389;DHT22;4734;52.778;6.798;2022-09-01T03:53:46;14.90;68.20
9389;DHT22;4734;52.778;6.798;2022-09-01T03:56:33;14.90;68.20
9389;DHT22;4734;52.778;6.798;2022-09-01T03:59:18;14.90;67.90
9389;DHT22;4734;52.778;6.798;2022-09-01T04:02:05;14.90;68.10
9389;DHT22;4734;52.778;6.798;2022-09-01T04:04:51;14.90;68.10
9389;DHT22;4734;52.778;6.798;2022-09-01T04:07:37;14.90;68.00
9389;DHT22;4734;52.778;6.798;2022-09-01T04:10:23;14.90;67.80
9389;DHT22;4734;52.778;6.798;2022-09-01T04:13:10;14.90;68.00
9389;DHT22;4734;52.778;6.798;2022-09-01T04:15:57;14.90;67.90
9389;DHT22;4734;52.778;6.798;2022-09-01T04:18:43;14.90;67.80
9389;DHT22;4734;52.778;6.798;2022-09-01T04:21:34;14.90;67.90
9389;DHT22;4734;52.778;6.798;2022-09-01T04:24:23;14.90;67.90
9389;DHT22;4734;52.778;6.798;2022-09-01T04:27:12;14.90;67.80
9389;DHT22;4734;52.778;6.798;2022-09-01T04:29:59;14.90;67.90
9389;DHT22;4734;52.778;6.798;2022-09-01T04:32:45;14.90;67.80
9389;DHT22;4734;52.778;6.798;2022-09-01T04:35:30;14.90;67.90
9389;DHT22;4734;52.778;6.798;2022-09-01T04:38:16;14.80;67.80
9389;DHT22;4734;52.778;6.798;2022-09-01T04:41:03;14.80;67.70
9389;DHT22;4734;52.778;6.798;2022-09-01T04:43:50;14.80;67.90
9389;DHT22;4734;52.778;6.798;2022-09-01T04:46:39;14.80;67.90
9389;DHT22;4734;52.778;6.798;2022-09-01T04:49:25;14.80;67.70
9389;DHT22;4734;52.778;6.798;2022-09-01T04:52:13;14.80;67.70
9389;DHT22;4734;52.778;6.798;2022-09-01T04:54:58;14.80;67.70
9389;DHT22;4734;52.778;6.798;2022-09-01T04:57:48;14.80;67.60
9389;DHT22;4734;52.778;6.798;2022-09-01T05:00:33;14.90;67.80
9389;DHT22;4734;52.778;6.798;2022-09-01T05:03:21;14.80;67.60
9389;DHT22;4734;52.778;6.798;2022-09-01T05:06:12;14.90;67.60
9389;DHT22;4734;52.778;6.798;2022-09-01T05:08:58;14.80;67.70
9389;DHT22;4734;52.778;6.798;2022-09-01T05:11:43;14.80;67.60
9389;DHT22;4734;52.778;6.798;2022-09-01T05:14:29;14.80;67.60
9389;DHT22;4734;52.778;6.798;2022-09-01T05:17:15;14.80;67.70
9389;DHT22;4734;52.778;6.798;2022-09-01T05:20:03;14.80;67.60
9389;DHT22;4734;52.778;6.798;2022-09-01T05:22:49;14.80;67.70
9389;DHT22;4734;52.778;6.798;2022-09-01T05:25:39;14.70;67.50
9389;DHT22;4734;52.778;6.798;2022-09-01T05:28:27;14.70;67.60
9389;DHT22;4734;52.778;6.798;2022-09-01T05:31:12;14.70;67.60
9389;DHT22;4734;52.778;6.798;2022-09-01T05:34:02;14.70;67.60
9389;DHT22;4734;52.778;6.798;2022-09-01T05:36:49;14.70;67.60
9389;DHT22;4734;52.778;6.798;2022-09-01T05:39:36;14.70;67.60
9389;DHT22;4734;52.778;6.798;2022-09-01T05:42:21;14.70;67.70
9389;DHT22;4734;52.778;6.798;2022-09-01T05:45:08;14.70;67.70
9389;DHT22;4734;52.778;6.798;2022-09-01T05:47:55;14.70;67.80
9389;DHT22;4734;52.778;6.798;2022-09-01T05:50:41;14.70;67.70
9389;DHT22;4734;52.778;6.798;2022-09-01T05:53:28;14.80;67.70
9389;DHT22;4734;52.778;6.798;2022-09-01T05:56:14;14.80;67.70
9389;DHT22;4734;52.778;6.798;2022-09-01T05:59:00;14.80;67.80
9389;DHT22;4734;52.778;6.798;2022-09-01T06:01:46;14.80;67.80
9389;DHT22;4734;52.778;6.798;2022-09-01T06:04:32;14.80;67.80
9389;DHT22;4734;52.778;6.798;2022-09-01T06:07:18;14.80;67.80
9389;DHT22;4734;52.778;6.798;2022-09-01T06:10:07;14.80;67.70
9389;DHT22;4734;52.778;6.798;2022-09-01T06:12:52;14.80;67.80
9389;DHT22;4734;52.778;6.798;2022-09-01T06:15:38;14.90;67.80
9389;DHT22;4734;52.778;6.798;2022-09-01T06:18:24;14.90;67.80
9389;DHT22;4734;52.778;6.798;2022-09-01T06:21:11;14.90;67.80
9389;DHT22;4734;52.778;6.798;2022-09-01T06:23:58;14.90;67.90
9389;DHT22;4734;52.778;6.798;2022-09-01T06:26:45;14.90;68.00
9389;DHT22;4734;52.778;6.798;2022-09-01T06:29:30;15.00;68.10
9389;DHT22;4734;52.778;6.798;2022-09-01T06:32:16;15.00;68.10
9389;DHT22;4734;52.778;6.798;2022-09-01T06:35:02;15.00;68.20
9389;DHT22;4734;52.778;6.798;2022-09-01T06:37:51;15.10;68.40
9389;DHT22;4734;52.778;6.798;2022-09-01T06:40:38;15.20;68.40
9389;DHT22;4734;52.778;6.798;2022-09-01T06:43:27;15.20;68.40
9389;DHT22;4734;52.778;6.798;2022-09-01T06:46:14;15.20;68.40
9389;DHT22;4734;52.778;6.798;2022-09-01T06:49:00;15.30;68.50
9389;DHT22;4734;52.778;6.798;2022-09-01T06:51:47;15.30;68.60
9389;DHT22;4734;52.778;6.798;2022-09-01T06:54:35;15.40;68.90
9389;DHT22;4734;52.778;6.798;2022-09-01T06:57:22;15.40;69.20
9389;DHT22;4734;52.778;6.798;2022-09-01T07:00:12;15.50;69.60
9389;DHT22;4734;52.778;6.798;2022-09-01T07:03:01;15.60;69.90
9389;DHT22;4734;52.778;6.798;2022-09-01T07:05:52;15.60;70.40
9389;DHT22;4734;52.778;6.798;2022-09-01T07:08:38;15.70;71.00
9389;DHT22;4734;52.778;6.798;2022-09-01T07:11:25;15.70;71.20
9389;DHT22;4734;52.778;6.798;2022-09-01T07:14:12;15.80;71.50
9389;DHT22;4734;52.778;6.798;2022-09-01T18:13:47;24.40;51.50
9389;DHT22;4734;52.778;6.798;2022-09-01T18:16:45;24.50;52.00
9389;DHT22;4734;52.778;6.798;2022-09-01T18:19:36;24.30;52.60
9389;DHT22;4734;52.778;6.798;2022-09-01T18:22:22;24.30;52.90
9389;DHT22;4734;52.778;6.798;2022-09-01T18:25:15;24.20;53.00
9389;DHT22;4734;52.778;6.798;2022-09-01T18:28:03;24.10;53.30
9389;DHT22;4734;52.778;6.798;2022-09-01T18:30:54;24.00;53.50
9389;DHT22;4734;52.778;6.798;2022-09-01T18:33:48;23.80;53.70
9389;DHT22;4734;52.778;6.798;2022-09-01T18:36:47;23.70;53.90
9389;DHT22;4734;52.778;6.798;2022-09-01T18:39:46;23.60;54.10
9389;DHT22;4734;52.778;6.798;2022-09-01T18:42:38;23.50;54.20
9389;DHT22;4734;52.778;6.798;2022-09-01T18:45:34;23.30;54.80
9389;DHT22;4734;52.778;6.798;2022-09-01T18:48:30;23.20;54.60
9389;DHT22;4734;52.778;6.798;2022-09-01T18:51:26;23.00;54.80
9389;DHT22;4734;52.778;6.798;2022-09-01T18:54:20;22.90;55.20
9389;DHT22;4734;52.778;6.798;2022-09-01T18:57:10;22.70;55.40
9389;DHT22;4734;52.778;6.798;2022-09-01T19:00:10;22.50;55.90
9389;DHT22;4734;52.778;6.798;2022-09-01T19:03:08;22.40;56.00
9389;DHT22;4734;52.778;6.798;2022-09-01T19:06:06;22.20;56.40
9389;DHT22;4734;52.778;6.798;2022-09-01T19:09:06;22.10;56.70
9389;DHT22;4734;52.778;6.798;2022-09-01T19:12:04;22.00;56.90
9389;DHT22;4734;52.778;6.798;2022-09-01T19:14:58;21.80;57.10
9389;DHT22;4734;52.778;6.798;2022-09-01T19:17:57;21.70;57.50
9389;DHT22;4734;52.778;6.798;2022-09-01T19:20:51;21.50;57.50
9389;DHT22;4734;52.778;6.798;2022-09-01T19:23:43;21.40;57.80
9389;DHT22;4734;52.778;6.798;2022-09-01T19:26:38;21.30;58.00
9389;DHT22;4734;52.778;6.798;2022-09-01T19:29:31;21.20;58.40
9389;DHT22;4734;52.778;6.798;2022-09-01T19:32:19;21.10;58.50
9389;DHT22;4734;52.778;6.798;2022-09-01T19:35:11;21.00;58.70
9389;DHT22;4734;52.778;6.798;2022-09-01T19:37:57;20.90;58.90
9389;DHT22;4734;52.778;6.798;2022-09-01T19:40:44;20.80;59.00
9389;DHT22;4734;52.778;6.798;2022-09-01T19:43:35;20.70;59.00
9389;DHT22;4734;52.778;6.798;2022-09-01T19:46:29;20.60;59.20
9389;DHT22;4734;52.778;6.798;2022-09-01T19:49:24;20.60;59.50
9389;DHT22;4734;52.778;6.798;2022-09-01T19:52:19;20.50;59.60
9389;DHT22;4734;52.778;6.798;2022-09-01T19:55:13;20.40;59.70
9389;DHT22;4734;52.778;6.798;2022-09-01T19:58:03;20.30;59.80
9389;DHT22;4734;52.778;6.798;2022-09-01T20:00:52;20.30;59.90
9389;DHT22;4734;52.778;6.798;2022-09-01T20:03:47;20.20;59.70
9389;DHT22;4734;52.778;6.798;2022-09-01T20:06:36;20.10;60.10
9389;DHT22;4734;52.778;6.798;2022-09-01T20:09:27;20.00;60.00
9389;DHT22;4734;52.778;6.798;2022-09-01T20:12:23;20.00;60.20
9389;DHT22;4734;52.778;6.798;2022-09-01T20:15:18;20.00;60.30
9389;DHT22;4734;52.778;6.798;2022-09-01T20:18:12;20.00;60.30
9389;DHT22;4734;52.778;6.798;2022-09-01T20:21:06;19.90;60.20
9389;DHT22;4734;52.778;6.798;2022-09-01T20:23:56;19.80;60.30
9389;DHT22;4734;52.778;6.798;2022-09-01T20:26:50;19.80;60.40
9389;DHT22;4734;52.778;6.798;2022-09-01T20:29:44;19.80;60.60
9389;DHT22;4734;52.778;6.798;2022-09-01T20:32:51;19.80;60.70
9389;DHT22;4734;52.778;6.798;2022-09-01T20:35:41;19.70;60.60
9389;DHT22;4734;52.778;6.798;2022-09-01T20:38:33;19.70;60.70
9389;DHT22;4734;52.778;6.798;2022-09-01T20:41:42;19.60;60.50
9389;DHT22;4734;52.778;6.798;2022-09-01T20:44:34;19.60;60.60
9389;DHT22;4734;52.778;6.798;2022-09-01T20:47:25;19.50;60.70
9389;DHT22;4734;52.778;6.798;2022-09-01T20:50:12;19.40;60.60
9389;DHT22;4734;52.778;6.798;2022-09-01T20:53:09;19.40;60.90
9389;DHT22;4734;52.778;6.798;2022-09-01T20:56:06;19.30;60.90
9389;DHT22;4734;52.778;6.798;2022-09-01T20:58:56;19.30;61.00
9389;DHT22;4734;52.778;6.798;2022-09-01T21:01:47;19.20;61.00
9389;DHT22;4734;52.778;6.798;2022-09-01T21:04:45;19.10;61.00
9389;DHT22;4734;52.778;6.798;2022-09-01T21:07:35;19.00;61.10
9389;DHT22;4734;52.778;6.798;2022-09-01T21:10:28;19.10;61.30
9389;DHT22;4734;52.778;6.798;2022-09-01T21:13:28;19.00;61.10
9389;DHT22;4734;52.778;6.798;2022-09-01T21:16:25;18.90;61.90
9389;DHT22;4734;52.778;6.798;2022-09-01T21:19:18;18.90;61.40
9389;DHT22;4734;52.778;6.798;2022-09-01T21:22:08;18.80;61.30
9389;DHT22;4734;52.778;6.798;2022-09-01T21:24:54;18.70;62.10
9389;DHT22;4734;52.778;6.798;2022-09-01T21:27:42;18.70;61.30
9389;DHT22;4734;52.778;6.798;2022-09-01T21:30:32;18.70;61.40
9389;DHT22;4734;52.778;6.798;2022-09-01T21:33:17;18.60;62.10
9389;DHT22;4734;52.778;6.798;2022-09-01T21:36:03;18.60;61.50
9389;DHT22;4734;52.778;6.798;2022-09-01T21:38:49;18.50;61.30
9389;DHT22;4734;52.778;6.798;2022-09-01T21:41:35;18.50;62.10
9389;DHT22;4734;52.778;6.798;2022-09-01T21:44:20;18.50;61.50
9389;DHT22;4734;52.778;6.798;2022-09-01T21:47:07;18.40;61.50
9389;DHT22;4734;52.778;6.798;2022-09-01T21:49:53;18.40;61.50
9389;DHT22;4734;52.778;6.798;2022-09-01T21:52:39;18.40;61.50
9389;DHT22;4734;52.778;6.798;2022-09-01T21:55:25;18.30;61.40
9389;DHT22;4734;52.778;6.798;2022-09-01T21:58:11;18.30;61.50
9389;DHT22;4734;52.778;6.798;2022-09-01T22:00:57;18.20;61.40
9389;DHT22;4734;52.778;6.798;2022-09-01T22:03:44;18.20;61.50
9389;DHT22;4734;52.778;6.798;2022-09-01T22:06:29;18.10;61.50
9389;DHT22;4734;52.778;6.798;2022-09-01T22:09:16;18.10;61.50
9389;DHT22;4734;52.778;6.798;2022-09-01T22:12:02;18.00;61.40
9389;DHT22;4734;52.778;6.798;2022-09-01T22:14:48;18.00;61.50
9389;DHT22;4734;52.778;6.798;2022-09-01T22:17:34;17.90;61.60
9389;DHT22;4734;52.778;6.798;2022-09-01T22:20:22;17.90;61.60
9389;DHT22;4734;52.778;6.798;2022-09-01T22:23:09;17.80;61.50
9389;DHT22;4734;52.778;6.798;2022-09-01T22:25:54;17.80;62.30
9389;DHT22;4734;52.778;6.798;2022-09-01T22:28:40;17.80;61.60
9389;DHT22;4734;52.778;6.798;2022-09-01T22:31:28;17.70;61.50
9389;DHT22;4734;52.778;6.798;2022-09-01T22:34:13;17.70;61.60
9389;DHT22;4734;52.778;6.798;2022-09-01T22:37:00;17.70;61.60
9389;DHT22;4734;52.778;6.798;2022-09-01T22:39:46;17.70;61.60
9389;DHT22;4734;52.778;6.798;2022-09-01T22:42:32;17.60;61.60
9389;DHT22;4734;52.778;6.798;2022-09-01T22:45:18;17.50;61.50
9389;DHT22;4734;52.778;6.798;2022-09-01T22:48:03;17.60;61.60
9389;DHT22;4734;52.778;6.798;2022-09-01T22:50:50;17.50;61.60
9389;DHT22;4734;52.778;6.798;2022-09-01T22:53:39;17.50;61.60
9389;DHT22;4734;52.778;6.798;2022-09-01T22:56:27;17.40;61.60
9389;DHT22;4734;52.778;6.798;2022-09-01T22:59:14;17.40;61.60
9389;DHT22;4734;52.778;6.798;2022-09-01T23:01:59;17.30;61.60
9389;DHT22;4734;52.778;6.798;2022-09-01T23:04:45;17.30;61.50
9389;DHT22;4734;52.778;6.798;2022-09-01T23:07:30;17.30;61.60
9389;DHT22;4734;52.778;6.798;2022-09-01T23:10:17;17.30;61.50
9389;DHT22;4734;52.778;6.798;2022-09-01T23:13:03;17.20;61.60
9389;DHT22;4734;52.778;6.798;2022-09-01T23:15:49;17.20;61.60
9389;DHT22;4734;52.778;6.798;2022-09-01T23:18:36;17.20;61.60
9389;DHT22;4734;52.778;6.798;2022-09-01T23:21:24;17.20;61.70
9389;DHT22;4734;52.778;6.798;2022-09-01T23:24:10;17.10;61.60
9389;DHT22;4734;52.778;6.798;2022-09-01T23:26:57;17.10;61.60
9389;DHT22;4734;52.778;6.798;2022-09-01T23:29:42;17.00;61.60
9389;DHT22;4734;52.778;6.798;2022-09-01T23:32:28;17.00;61.50
9389;DHT22;4734;52.778;6.798;2022-09-01T23:35:14;17.00;61.70
9389;DHT22;4734;52.778;6.798;2022-09-01T23:37:59;17.00;61.70
9389;DHT22;4734;52.778;6.798;2022-09-01T23:40:48;16.90;61.60
9389;DHT22;4734;52.778;6.798;2022-09-01T23:43:36;16.90;61.60
9389;DHT22;4734;52.778;6.798;2022-09-01T23:46:23;16.80;61.60
9389;DHT22;4734;52.778;6.798;2022-09-01T23:49:10;16.80;61.60
9389;DHT22;4734;52.778;6.798;2022-09-01T23:51:56;16.70;61.60
9389;DHT22;4734;52.778;6.798;2022-09-01T23:54:41;16.70;61.70
9389;DHT22;4734;52.778;6.798;2022-09-01T23:57:27;16.70;61.70
